sensor_id;sensor_type;location;lat;lon;timestamp;P1;durP1;ratioP1;P2;durP2;ratioP2
51840;SDS011;37888;53.246;6.658;2023-07-20T02:52:39;1.65;;;0.80;;
51840;SDS011;37888;53.246;6.658;2023-07-20T02:55:18;2.67;;;0.60;;
51840;SDS011;37888;53.246;6.658;2023-07-20T02:57:44;1.13;;;0.70;;
51840;SDS011;37888;53.246;6.658;2023-07-20T03:00:14;1.38;;;0.95;;
51840;SDS011;37888;53.246;6.658;2023-07-20T03:02:46;1.02;;;0.77;;
51840;SDS011;37888;53.246;6.658;2023-07-20T03:05:23;0.82;;;0.68;;
51840;SDS011;37888;53.246;6.658;2023-07-20T03:11:12;2.00;;;1.20;;
51840;SDS011;37888;53.246;6.658;2023-07-20T03:13:48;0.77;;;0.60;;
51840;SDS011;37888;53.246;6.658;2023-07-20T03:16:38;1.58;;;0.70;;
51840;SDS011;37888;53.246;6.658;2023-07-20T03:19:12;1.70;;;0.70;;
51840;SDS011;37888;53.246;6.658;2023-07-20T03:21:51;2.03;;;0.70;;
51840;SDS011;37888;53.246;6.658;2023-07-20T03:24:17;1.35;;;0.70;;
51840;SDS011;37888;53.246;6.658;2023-07-20T03:26:55;1.13;;;0.63;;
51840;SDS011;37888;53.246;6.658;2023-07-20T03:29:33;1.10;;;0.63;;
51840;SDS011;37888;53.246;6.658;2023-07-20T03:32:17;3.45;;;0.70;;
51840;SDS011;37888;53.246;6.658;2023-07-20T03:34:45;2.20;;;0.68;;
51840;SDS011;37888;53.246;6.658;2023-07-20T03:37:19;3.13;;;0.80;;
51840;SDS011;37888;53.246;6.658;2023-07-20T03:39:45;1.75;;;0.80;;
51840;SDS011;37888;53.246;6.658;2023-07-20T03:42:19;1.10;;;0.65;;
51840;SDS011;37888;53.246;6.658;2023-07-20T03:44:45;4.20;;;1.15;;
51840;SDS011;37888;53.246;6.658;2023-07-20T03:47:22;1.45;;;1.00;;
51840;SDS011;37888;53.246;6.658;2023-07-20T03:49:51;2.10;;;1.00;;
51840;SDS011;37888;53.246;6.658;2023-07-20T03:52:23;1.27;;;0.80;;
51840;SDS011;37888;53.246;6.658;2023-07-20T03:55:05;2.08;;;0.82;;
51840;SDS011;37888;53.246;6.658;2023-07-20T03:57:31;1.83;;;0.80;;
51840;SDS011;37888;53.246;6.658;2023-07-20T03:59:58;1.10;;;0.70;;
51840;SDS011;37888;53.246;6.658;2023-07-20T04:02:34;1.73;;;0.90;;
51840;SDS011;37888;53.246;6.658;2023-07-20T04:05:09;1.38;;;0.70;;
51840;SDS011;37888;53.246;6.658;2023-07-20T04:07:41;2.25;;;0.80;;
51840;SDS011;37888;53.246;6.658;2023-07-20T04:10:07;1.75;;;0.73;;
51840;SDS011;37888;53.246;6.658;2023-07-20T04:12:42;1.60;;;0.90;;
51840;SDS011;37888;53.246;6.658;2023-07-20T04:15:18;0.93;;;0.52;;
51840;SDS011;37888;53.246;6.658;2023-07-20T04:17:44;1.50;;;1.00;;
51840;SDS011;37888;53.246;6.658;2023-07-20T07:14:04;2.30;;;0.98;;
51840;SDS011;37888;53.246;6.658;2023-07-20T07:21:08;1.63;;;0.80;;
51840;SDS011;37888;53.246;6.658;2023-07-20T07:24:26;1.40;;;0.80;;
51840;SDS011;37888;53.246;6.658;2023-07-20T07:27:28;1.90;;;0.70;;
51840;SDS011;37888;53.246;6.658;2023-07-20T07:33:49;1.27;;;0.50;;
51840;SDS011;37888;53.246;6.658;2023-07-20T07:39:51;4.07;;;0.90;;
51840;SDS011;37888;53.246;6.658;2023-07-20T15:07:57;1.65;;;0.40;;
51840;SDS011;37888;53.246;6.658;2023-07-20T15:10:23;1.83;;;0.50;;
51840;SDS011;37888;53.246;6.658;2023-07-20T15:12:49;3.13;;;0.50;;
51840;SDS011;37888;53.246;6.658;2023-07-20T15:15:19;1.00;;;0.50;;
51840;SDS011;37888;53.246;6.658;2023-07-20T15:17:45;1.85;;;0.40;;
51840;SDS011;37888;53.246;6.658;2023-07-20T15:20:11;2.80;;;0.68;;
51840;SDS011;37888;53.246;6.658;2023-07-20T15:22:38;1.48;;;0.60;;
51840;SDS011;37888;53.246;6.658;2023-07-20T15:25:08;0.95;;;0.50;;
51840;SDS011;37888;53.246;6.658;2023-07-20T15:27:36;1.05;;;0.50;;
51840;SDS011;37888;53.246;6.658;2023-07-20T15:30:02;2.33;;;0.60;;
51840;SDS011;37888;53.246;6.658;2023-07-20T15:32:29;4.40;;;0.80;;
51840;SDS011;37888;53.246;6.658;2023-07-20T15:34:54;3.70;;;0.55;;
51840;SDS011;37888;53.246;6.658;2023-07-20T15:37:20;1.38;;;0.80;;
51840;SDS011;37888;53.246;6.658;2023-07-20T15:39:50;1.30;;;0.50;;
51840;SDS011;37888;53.246;6.658;2023-07-20T15:42:16;1.20;;;0.80;;
51840;SDS011;37888;53.246;6.658;2023-07-20T15:44:42;1.27;;;0.65;;
51840;SDS011;37888;53.246;6.658;2023-07-20T15:47:09;0.85;;;0.60;;
51840;SDS011;37888;53.246;6.658;2023-07-20T15:49:37;1.38;;;0.63;;
51840;SDS011;37888;53.246;6.658;2023-07-20T15:52:05;1.23;;;0.60;;
51840;SDS011;37888;53.246;6.658;2023-07-20T15:54:31;1.52;;;0.63;;
51840;SDS011;37888;53.246;6.658;2023-07-20T15:56:57;2.05;;;0.60;;
51840;SDS011;37888;53.246;6.658;2023-07-20T15:59:23;1.40;;;0.50;;
51840;SDS011;37888;53.246;6.658;2023-07-20T16:01:48;1.80;;;0.60;;
51840;SDS011;37888;53.246;6.658;2023-07-20T16:04:14;1.30;;;0.57;;
51840;SDS011;37888;53.246;6.658;2023-07-20T16:06:40;2.42;;;0.60;;
51840;SDS011;37888;53.246;6.658;2023-07-20T16:09:06;1.38;;;0.50;;
51840;SDS011;37888;53.246;6.658;2023-07-20T16:11:35;0.95;;;0.50;;
51840;SDS011;37888;53.246;6.658;2023-07-20T16:14:01;1.67;;;0.50;;
51840;SDS011;37888;53.246;6.658;2023-07-20T16:16:30;1.03;;;0.70;;
51840;SDS011;37888;53.246;6.658;2023-07-20T16:18:57;0.85;;;0.50;;
51840;SDS011;37888;53.246;6.658;2023-07-20T16:21:23;3.03;;;0.65;;
51840;SDS011;37888;53.246;6.658;2023-07-20T16:23:49;0.85;;;0.50;;
51840;SDS011;37888;53.246;6.658;2023-07-20T16:26:15;2.20;;;0.40;;
51840;SDS011;37888;53.246;6.658;2023-07-20T16:28:41;1.85;;;0.40;;
51840;SDS011;37888;53.246;6.658;2023-07-20T16:31:10;1.80;;;0.38;;
51840;SDS011;37888;53.246;6.658;2023-07-20T16:33:40;1.58;;;0.60;;
51840;SDS011;37888;53.246;6.658;2023-07-20T16:36:12;1.27;;;0.30;;
51840;SDS011;37888;53.246;6.658;2023-07-20T16:38:40;1.58;;;0.50;;
51840;SDS011;37888;53.246;6.658;2023-07-20T16:41:07;1.00;;;0.40;;
51840;SDS011;37888;53.246;6.658;2023-07-20T16:46:01;1.35;;;0.32;;
51840;SDS011;37888;53.246;6.658;2023-07-20T16:48:28;1.20;;;0.32;;
51840;SDS011;37888;53.246;6.658;2023-07-20T16:50:57;1.45;;;0.50;;
51840;SDS011;37888;53.246;6.658;2023-07-20T16:53:24;0.82;;;0.40;;
51840;SDS011;37888;53.246;6.658;2023-07-20T16:55:53;1.85;;;0.40;;
51840;SDS011;37888;53.246;6.658;2023-07-20T16:58:22;1.52;;;0.50;;
51840;SDS011;37888;53.246;6.658;2023-07-20T17:00:49;1.25;;;0.40;;
51840;SDS011;37888;53.246;6.658;2023-07-20T17:03:15;1.73;;;0.50;;
51840;SDS011;37888;53.246;6.658;2023-07-20T17:05:42;2.27;;;0.30;;
51840;SDS011;37888;53.246;6.658;2023-07-20T17:08:08;1.20;;;0.50;;
51840;SDS011;37888;53.246;6.658;2023-07-20T17:10:35;1.75;;;0.50;;
51840;SDS011;37888;53.246;6.658;2023-07-20T17:13:04;1.10;;;0.50;;
51840;SDS011;37888;53.246;6.658;2023-07-20T17:15:31;0.80;;;0.50;;
51840;SDS011;37888;53.246;6.658;2023-07-20T17:17:57;0.88;;;0.52;;
51840;SDS011;37888;53.246;6.658;2023-07-20T17:26:23;1.15;;;0.55;;
51840;SDS011;37888;53.246;6.658;2023-07-20T17:29:46;0.85;;;0.50;;
51840;SDS011;37888;53.246;6.658;2023-07-20T17:32:25;1.80;;;0.70;;
51840;SDS011;37888;53.246;6.658;2023-07-20T17:34:51;2.22;;;0.50;;
51840;SDS011;37888;53.246;6.658;2023-07-20T17:37:31;0.93;;;0.40;;
51840;SDS011;37888;53.246;6.658;2023-07-20T17:40:12;1.88;;;0.50;;
51840;SDS011;37888;53.246;6.658;2023-07-20T17:42:41;1.23;;;0.43;;
51840;SDS011;37888;53.246;6.658;2023-07-20T17:45:07;3.30;;;0.47;;
51840;SDS011;37888;53.246;6.658;2023-07-20T17:48:02;2.55;;;0.68;;
51840;SDS011;37888;53.246;6.658;2023-07-20T17:51:00;1.23;;;0.40;;
51840;SDS011;37888;53.246;6.658;2023-07-20T18:09:56;2.72;;;0.60;;
51840;SDS011;37888;53.246;6.658;2023-07-20T18:12:22;1.15;;;0.50;;
51840;SDS011;37888;53.246;6.658;2023-07-20T18:14:51;2.30;;;0.50;;
51840;SDS011;37888;53.246;6.658;2023-07-20T19:20:26;1.00;;;0.60;;
51840;SDS011;37888;53.246;6.658;2023-07-20T19:42:28;2.08;;;0.90;;
51840;SDS011;37888;53.246;6.658;2023-07-20T19:57:21;2.72;;;0.93;;
51840;SDS011;37888;53.246;6.658;2023-07-20T20:00:45;2.35;;;0.90;;
51840;SDS011;37888;53.246;6.658;2023-07-20T20:43:31;2.50;;;1.10;;
51840;SDS011;37888;53.246;6.658;2023-07-20T20:49:41;1.80;;;1.10;;
51840;SDS011;37888;53.246;6.658;2023-07-20T20:52:59;4.05;;;1.38;;
51840;SDS011;37888;53.246;6.658;2023-07-20T20:55:44;2.47;;;1.00;;
51840;SDS011;37888;53.246;6.658;2023-07-20T20:58:19;3.65;;;1.13;;
51840;SDS011;37888;53.246;6.658;2023-07-20T21:01:03;2.00;;;0.90;;
51840;SDS011;37888;53.246;6.658;2023-07-20T21:03:37;2.53;;;1.02;;
51840;SDS011;37888;53.246;6.658;2023-07-20T21:06:08;1.92;;;1.00;;
51840;SDS011;37888;53.246;6.658;2023-07-20T21:13:07;1.80;;;1.10;;
51840;SDS011;37888;53.246;6.658;2023-07-20T21:19:39;5.40;;;1.27;;
51840;SDS011;37888;53.246;6.658;2023-07-20T21:26:18;3.15;;;1.40;;
51840;SDS011;37888;53.246;6.658;2023-07-20T21:29:24;2.15;;;1.00;;
51840;SDS011;37888;53.246;6.658;2023-07-20T21:36:05;3.60;;;1.35;;
51840;SDS011;37888;53.246;6.658;2023-07-20T21:39:14;1.77;;;1.17;;
51840;SDS011;37888;53.246;6.658;2023-07-20T21:42:17;2.08;;;1.20;;
51840;SDS011;37888;53.246;6.658;2023-07-20T21:45:25;5.25;;;1.55;;
51840;SDS011;37888;53.246;6.658;2023-07-20T21:48:09;2.50;;;2.10;;
51840;SDS011;37888;53.246;6.658;2023-07-20T21:58:04;6.07;;;5.32;;
51840;SDS011;37888;53.246;6.658;2023-07-20T22:00:52;3.92;;;3.53;;
51840;SDS011;37888;53.246;6.658;2023-07-20T22:07:07;3.03;;;2.00;;
51840;SDS011;37888;53.246;6.658;2023-07-20T22:10:30;2.30;;;1.75;;
51840;SDS011;37888;53.246;6.658;2023-07-20T22:20:59;3.10;;;2.40;;
51840;SDS011;37888;53.246;6.658;2023-07-20T22:24:27;4.07;;;2.85;;
51840;SDS011;37888;53.246;6.658;2023-07-20T22:34:26;3.28;;;1.83;;
51840;SDS011;37888;53.246;6.658;2023-07-20T22:48:46;2.75;;;1.60;;
51840;SDS011;37888;53.246;6.658;2023-07-20T22:51:27;4.65;;;3.05;;
51840;SDS011;37888;53.246;6.658;2023-07-20T22:54:54;4.32;;;2.10;;
51840;SDS011;37888;53.246;6.658;2023-07-20T23:04:43;4.35;;;2.00;;
51840;SDS011;37888;53.246;6.658;2023-07-20T23:10:30;7.47;;;3.80;;
51840;SDS011;37888;53.246;6.658;2023-07-20T23:13:16;6.93;;;3.90;;
51840;SDS011;37888;53.246;6.658;2023-07-20T23:16:29;6.05;;;3.40;;
51840;SDS011;37888;53.246;6.658;2023-07-20T23:19:28;3.78;;;2.22;;
51840;SDS011;37888;53.246;6.658;2023-07-20T23:24:48;3.65;;;1.80;;
51840;SDS011;37888;53.246;6.658;2023-07-20T23:27:38;7.55;;;3.63;;
51840;SDS011;37888;53.246;6.658;2023-07-20T23:30:53;7.47;;;2.90;;
51840;SDS011;37888;53.246;6.658;2023-07-20T23:33:30;5.90;;;2.80;;
51840;SDS011;37888;53.246;6.658;2023-07-20T23:36:32;7.80;;;3.53;;
51840;SDS011;37888;53.246;6.658;2023-07-20T23:39:19;5.72;;;3.75;;
51840;SDS011;37888;53.246;6.658;2023-07-20T23:42:00;6.47;;;3.65;;
51840;SDS011;37888;53.246;6.658;2023-07-20T23:44:51;6.65;;;3.47;;
51840;SDS011;37888;53.246;6.658;2023-07-20T23:47:41;6.47;;;3.65;;
51840;SDS011;37888;53.246;6.658;2023-07-20T23:50:10;7.57;;;4.80;;
51840;SDS011;37888;53.246;6.658;2023-07-20T23:53:07;9.02;;;5.88;;
51840;SDS011;37888;53.246;6.658;2023-07-20T23:56:22;6.38;;;4.57;;
